createdAt,value
2023-04-25T00:00:18.601Z,99212.59
2023-04-25T00:02:45.717Z,99216.06
2023-04-25T00:05:13.384Z,99214.47
2023-04-25T00:07:40.613Z,99210.25
2023-04-25T00:10:08.604Z,99207.78
2023-04-25T00:12:35.645Z,99207.78
2023-04-25T00:15:02.954Z,99201.97
2023-04-25T00:17:30.669Z,99206.19
2023-04-25T00:19:59.336Z,99206.31
2023-04-25T00:22:26.365Z,99209.75
2023-04-25T00:24:54.569Z,99210.66
2023-04-25T00:27:21.726Z,99213.50
2023-04-25T00:29:48.841Z,99220.59
2023-04-25T00:32:15.994Z,99212.13
2023-04-25T00:34:43.004Z,99218.25
2023-04-25T00:37:10.172Z,99215.88
2023-04-25T00:39:37.283Z,99216.06
2023-04-25T00:42:04.464Z,99216.06
2023-04-25T00:44:33.446Z,99216.06
2023-04-25T00:47:02.954Z,99216.22
2023-04-25T00:49:30.143Z,99209.66
2023-04-25T00:51:57.840Z,99220.06
2023-04-25T00:54:25.767Z,99218.47
2023-04-25T00:56:54.036Z,99221.19
2023-04-25T00:59:22.132Z,99220.53
2023-04-25T01:01:49.386Z,99229.16
2023-04-25T01:04:16.563Z,99229.25
2023-04-25T01:06:43.817Z,99232.03
2023-04-25T01:09:11.364Z,99205.88
2023-04-25T01:11:38.493Z,99231.50
2023-04-25T01:14:05.732Z,99229.00
2023-04-25T01:16:34.301Z,99233.53
2023-04-25T01:19:01.655Z,99244.69
2023-04-25T01:21:30.933Z,99244.75
2023-04-25T01:23:58.413Z,99243.25
2023-04-25T01:26:26.650Z,99242.41
2023-04-25T01:28:54.011Z,99238.16
2023-04-25T01:31:21.392Z,99251.22
2023-04-25T01:33:49.064Z,99243.69
2023-04-25T01:36:16.598Z,99239.47
2023-04-25T01:38:45.151Z,99238.69
2023-04-25T01:41:12.496Z,99242.97
2023-04-25T01:43:39.796Z,99241.38
2023-04-25T01:46:07.518Z,99240.56
2023-04-25T01:48:34.652Z,99244.16
2023-04-25T01:51:01.807Z,99244.25
2023-04-25T01:53:29.935Z,99248.69
2023-04-25T01:55:57.282Z,99253.88
2023-04-25T01:58:26.819Z,99255.72
2023-04-25T02:01:06.121Z,99257.66
2023-04-25T02:03:41.554Z,99257.66
2023-04-25T02:06:15.774Z,99257.72
2023-04-25T02:08:45.113Z,99253.47
2023-04-25T02:11:13.688Z,99252.63
2023-04-25T02:13:47.258Z,99256.16
2023-04-25T02:16:33.290Z,99261.31
2023-04-25T02:19:02.131Z,99257.97
2023-04-25T02:21:31.685Z,99258.13
2023-04-25T02:23:59.084Z,99265.88
2023-04-25T02:26:29.048Z,99259.91
2023-04-25T02:28:57.968Z,99263.47
2023-04-25T02:31:25.084Z,99260.94
2023-04-25T02:33:53.133Z,99263.59
2023-04-25T02:36:20.562Z,99267.19
2023-04-25T02:38:49.426Z,99267.28
2023-04-25T02:41:16.506Z,99267.28
2023-04-25T02:43:43.624Z,99268.88
2023-04-25T02:46:11.255Z,99274.84
2023-04-25T02:48:38.410Z,99281.00
2023-04-25T02:51:05.706Z,99271.53
2023-04-25T02:53:32.806Z,99265.59
2023-04-25T02:56:00.343Z,99270.78
2023-04-25T02:58:27.493Z,99272.56
2023-04-25T03:00:55.946Z,99276.16
2023-04-25T03:03:23.310Z,99270.97
2023-04-25T03:05:52.434Z,99275.38
2023-04-25T03:08:24.758Z,99276.38
2023-04-25T03:10:53.243Z,99262.78
2023-04-25T03:13:20.647Z,99276.53
2023-04-25T03:15:47.736Z,99273.13
2023-04-25T03:18:14.816Z,99274.91
2023-04-25T03:20:42.968Z,99280.13
2023-04-25T03:23:10.118Z,99280.06
2023-04-25T03:25:39.451Z,99281.97
2023-04-25T03:28:06.663Z,99278.56
2023-04-25T03:30:34.215Z,99276.75
2023-04-25T03:33:01.719Z,99276.72
2023-04-25T03:35:28.801Z,99280.25
2023-04-25T03:37:55.985Z,99282.81
2023-04-25T03:40:28.809Z,99280.25
2023-04-25T03:43:28.286Z,99283.72
2023-04-25T03:46:01.836Z,99290.50
2023-04-25T03:48:29.047Z,99293.91
2023-04-25T03:50:56.328Z,99287.06
2023-04-25T03:53:23.678Z,99292.28
2023-04-25T03:56:09.302Z,99292.34
2023-04-25T03:58:38.440Z,99293.06
2023-04-25T04:01:08.980Z,99295.72
2023-04-25T04:03:39.304Z,99302.56
2023-04-25T04:06:08.085Z,99297.38
2023-04-25T04:08:41.773Z,99300.81
2023-04-25T04:11:10.672Z,99300.72
2023-04-25T04:13:37.907Z,99305.81
2023-04-25T04:16:06.061Z,99302.22
2023-04-25T04:18:34.520Z,99303.94
2023-04-25T04:21:02.589Z,99302.28
2023-04-25T04:23:32.411Z,99300.66
2023-04-25T04:26:00.984Z,99304.00
2023-04-25T04:28:30.959Z,99304.94
2023-04-25T04:31:06.177Z,99309.38
2023-04-25T04:33:33.736Z,99318.72
2023-04-25T04:36:05.305Z,99311.03
2023-04-25T04:38:33.291Z,99318.78
2023-04-25T04:41:04.482Z,99324.75
2023-04-25T04:43:57.103Z,99323.06
2023-04-25T04:46:32.778Z,99328.28
2023-04-25T04:49:38.341Z,99319.91
2023-04-25T04:52:43.867Z,99323.34
2023-04-25T04:55:44.267Z,99333.66
2023-04-25T04:58:31.023Z,99343.13
2023-04-25T05:01:14.011Z,99339.56
2023-04-25T05:04:04.262Z,99343.75
2023-04-25T05:06:54.345Z,99336.91
2023-04-25T05:09:42.738Z,99337.63
2023-04-25T05:12:28.426Z,99324.59
2023-04-25T05:21:07.795Z,99332.38
2023-04-25T05:23:57.690Z,99335.78
2023-04-25T05:26:43.621Z,99329.03
2023-04-25T05:29:33.258Z,99328.13
2023-04-25T05:32:12.604Z,99333.44
2023-04-25T05:34:39.965Z,99334.34
2023-04-25T05:37:13.456Z,99329.44
2023-04-25T05:39:52.164Z,99329.47
2023-04-25T05:42:45.858Z,99332.88
2023-04-25T05:45:31.681Z,99334.59
2023-04-25T05:48:04.897Z,99324.28
2023-04-25T05:50:57.684Z,99329.03
2023-04-25T05:53:48.663Z,99333.88
2023-04-25T05:56:16.166Z,99337.22
2023-04-25T05:58:43.229Z,99336.25
2023-04-25T06:01:13.849Z,99332.69
2023-04-25T06:03:44.234Z,99328.84
2023-04-25T06:06:13.224Z,99347.38
2023-04-25T06:08:41.283Z,99337.53
2023-04-25T06:11:08.325Z,99345.72
2023-04-25T06:13:35.766Z,99339.25
2023-04-25T06:16:03.178Z,99336.66
2023-04-25T06:18:30.576Z,99338.13
2023-04-25T06:20:57.648Z,99343.41
2023-04-25T06:23:25.484Z,99341.72
2023-04-25T06:25:58.089Z,99346.88
2023-04-25T06:28:26.295Z,99341.53
2023-04-25T06:30:53.489Z,99342.91
2023-04-25T06:33:22.559Z,99344.19
2023-04-25T06:35:50.172Z,99334.47
2023-04-25T06:38:20.248Z,99333.09
2023-04-25T06:40:51.177Z,99337.72
2023-04-25T06:43:19.203Z,99333.97
2023-04-25T06:46:06.049Z,99337.34
2023-04-25T06:48:39.226Z,99330.69
2023-04-25T06:51:06.413Z,99335.16
2023-04-25T06:53:35.001Z,99328.44
2023-04-25T06:56:04.798Z,99333.59
2023-04-25T06:58:55.958Z,99330.25
2023-04-25T07:01:34.475Z,99331.28
2023-04-25T07:04:05.389Z,99331.44
2023-04-25T07:06:34.321Z,99337.72
2023-04-25T07:09:01.429Z,99344.28
2023-04-25T07:11:29.418Z,99339.25
2023-04-25T07:13:57.216Z,99343.41
2023-04-25T07:16:24.296Z,99336.16
2023-04-25T07:18:51.866Z,99337.53
2023-04-25T07:21:19.888Z,99332.31
2023-04-25T07:23:48.864Z,99321.94
2023-04-25T07:26:20.055Z,99340.94
2023-04-25T07:29:07.134Z,99339.00
2023-04-25T07:31:34.903Z,99332.97
2023-04-25T07:34:02.281Z,99339.91
2023-04-25T07:36:29.624Z,99341.78
2023-04-25T07:38:56.802Z,99338.69
2023-04-25T07:41:24.066Z,99333.69
2023-04-25T07:43:51.336Z,99339.84
2023-04-25T07:46:20.919Z,99349.59
2023-04-25T07:48:48.295Z,99344.84
2023-04-25T07:51:15.530Z,99345.69
2023-04-25T07:53:43.452Z,99346.72
2023-04-25T07:56:13.596Z,99348.50
2023-04-25T07:58:43.706Z,99349.44
2023-04-25T08:01:13.844Z,99355.81
2023-04-25T08:03:50.305Z,99355.03
2023-04-25T08:06:25.060Z,99354.28
2023-04-25T08:09:18.564Z,99365.34
2023-04-25T08:11:45.759Z,99356.41
2023-04-25T08:14:15.935Z,99360.56
2023-04-25T08:16:44.796Z,99351.91
2023-04-25T08:19:12.256Z,99360.31
2023-04-25T08:21:39.402Z,99355.94
2023-04-25T08:24:11.042Z,99352.16
2023-04-25T08:26:40.519Z,99351.63
2023-04-25T08:29:09.046Z,99352.16
2023-04-25T08:31:39.909Z,99350.38
2023-04-25T08:34:08.357Z,99361.41
2023-04-25T08:36:40.545Z,99355.38
2023-04-25T08:39:26.133Z,99350.59
2023-04-25T08:42:16.909Z,99369.69
2023-04-25T08:44:47.428Z,99362.84
2023-04-25T08:47:14.774Z,99360.94
2023-04-25T08:49:48.219Z,99360.94
2023-04-25T08:52:23.882Z,99359.34
2023-04-25T08:54:53.788Z,99367.06
2023-04-25T08:57:22.481Z,99372.44
2023-04-25T08:59:51.310Z,99368.88
2023-04-25T09:02:21.143Z,99369.59
2023-04-25T09:04:51.075Z,99367.59
2023-04-25T09:07:22.247Z,99369.03
2023-04-25T09:09:49.550Z,99371.88
2023-04-25T09:12:21.893Z,99370.28
2023-04-25T09:15:09.768Z,99377.56
2023-04-25T09:17:59.131Z,99375.75
2023-04-25T09:20:33.459Z,99378.31
2023-04-25T09:23:07.718Z,99384.13
2023-04-25T09:25:40.107Z,99386.91
2023-04-25T09:28:09.640Z,99386.31
2023-04-25T09:30:37.767Z,99392.47
2023-04-25T09:33:12.494Z,99389.09
2023-04-25T09:35:46.783Z,99390.19
2023-04-25T09:38:22.622Z,99390.13
2023-04-25T09:41:13.176Z,99395.31
2023-04-25T09:43:48.013Z,99396.91
2023-04-25T09:46:16.721Z,99393.19
2023-04-25T09:48:51.888Z,99401.34
2023-04-25T09:51:28.926Z,99398.81
2023-04-25T09:53:59.216Z,99405.00
2023-04-25T09:56:49.812Z,99404.38
2023-04-25T09:59:17.367Z,99395.66
2023-04-25T10:01:44.937Z,99401.31
2023-04-25T10:04:28.951Z,99401.66
2023-04-25T10:07:08.262Z,99410.25
2023-04-25T10:09:40.722Z,99406.00
2023-04-25T10:12:09.250Z,99413.91
2023-04-25T10:14:36.955Z,99424.84
2023-04-25T10:17:04.670Z,99411.44
2023-04-25T10:19:31.857Z,99414.31
2023-04-25T10:22:09.921Z,99423.09
2023-04-25T10:24:38.702Z,99413.72
2023-04-25T10:27:06.850Z,99417.34
2023-04-25T10:29:34.031Z,99423.47
2023-04-25T10:32:01.793Z,99419.16
2023-04-25T10:34:43.136Z,99420.91
2023-04-25T10:37:12.215Z,99425.66
2023-04-25T10:39:41.691Z,99429.53
2023-04-25T10:42:09.531Z,99429.75
2023-04-25T10:44:40.571Z,99426.75
2023-04-25T10:47:09.098Z,99423.47
2023-04-25T10:49:43.788Z,99425.34
2023-04-25T10:52:16.285Z,99430.44
2023-04-25T10:54:48.007Z,99432.16
2023-04-25T10:57:45.179Z,99435.34
2023-04-25T11:00:14.623Z,99428.34
2023-04-25T11:02:59.668Z,99426.66
2023-04-25T11:05:55.072Z,99430.44
2023-04-25T11:08:49.228Z,99432.31
2023-04-25T11:11:17.945Z,99430.53
2023-04-25T11:13:45.253Z,99421.09
2023-04-25T11:16:13.422Z,99420.06
2023-04-25T11:18:45.926Z,99424.88
2023-04-25T11:21:13.168Z,99428.06
2023-04-25T11:23:40.373Z,99427.06
2023-04-25T11:26:08.055Z,99429.38
2023-04-25T11:28:35.144Z,99433.66
2023-04-25T11:31:05.600Z,99424.28
2023-04-25T11:33:32.683Z,99433.06
2023-04-25T11:36:00.356Z,99435.06
2023-04-25T11:38:29.280Z,99435.34
2023-04-25T11:40:56.856Z,99437.38
2023-04-25T11:43:24.152Z,99440.81
2023-04-25T11:45:54.755Z,99440.91
2023-04-25T11:48:26.009Z,99440.88
2023-04-25T11:50:55.346Z,99444.22
2023-04-25T11:53:22.813Z,99435.63
2023-04-25T11:55:51.278Z,99447.63
2023-04-25T11:58:20.733Z,99439.13
2023-04-25T12:00:50.131Z,99448.44
2023-04-25T12:03:19.681Z,99442.13
2023-04-25T12:05:47.945Z,99447.16
2023-04-25T12:08:16.482Z,99443.34
2023-04-25T12:10:46.220Z,99439.56
2023-04-25T12:13:27.336Z,99442.84
2023-04-25T12:15:57.751Z,99443.50
2023-04-25T12:18:25.224Z,99439.91
2023-04-25T12:20:53.960Z,99438.56
2023-04-25T12:23:29.434Z,99448.75
2023-04-25T12:25:57.332Z,99438.38
2023-04-25T12:28:26.221Z,99438.16
2023-04-25T12:31:06.084Z,99435.19
2023-04-25T12:33:35.792Z,99439.31
2023-04-25T12:36:12.220Z,99437.41
2023-04-25T12:38:41.468Z,99432.09
2023-04-25T12:41:09.184Z,99428.59
2023-04-25T12:43:36.241Z,99438.00
2023-04-25T12:46:03.612Z,99432.09
2023-04-25T12:48:30.941Z,99434.34
2023-04-25T12:50:58.036Z,99443.47
2023-04-25T12:53:25.668Z,99437.81
2023-04-25T12:55:52.972Z,99439.34
2023-04-25T12:58:21.127Z,99446.75
2023-04-25T13:00:48.940Z,99443.75
2023-04-25T13:03:16.571Z,99451.81
2023-04-25T13:05:44.094Z,99450.41
2023-04-25T13:08:11.220Z,99442.69
2023-04-25T13:10:40.529Z,99441.09
2023-04-25T13:13:07.705Z,99437.59
2023-04-25T13:15:34.884Z,99434.13
2023-04-25T13:18:02.509Z,99437.25
2023-04-25T13:20:29.766Z,99440.13
2023-04-25T13:22:56.903Z,99432.84
2023-04-25T13:25:24.130Z,99436.81
2023-04-25T13:27:51.165Z,99436.25
2023-04-25T13:30:18.333Z,99445.56
2023-04-25T13:32:45.653Z,99437.78
2023-04-25T13:35:17.910Z,99446.94
2023-04-25T13:37:44.931Z,99452.91
2023-04-25T13:40:12.434Z,99449.50
2023-04-25T13:42:39.920Z,99454.03
2023-04-25T13:45:08.500Z,99452.63
2023-04-25T13:47:35.711Z,99448.66
2023-04-25T13:50:04.460Z,99447.31
2023-04-25T13:52:31.948Z,99449.94
2023-04-25T13:54:59.824Z,99447.31
2023-04-25T13:57:27.002Z,99458.44
2023-04-25T13:59:54.898Z,99451.34
2023-04-25T14:02:22.037Z,99453.13
2023-04-25T14:04:49.265Z,99452.28
2023-04-25T14:07:20.500Z,99448.03
2023-04-25T14:09:47.636Z,99445.25
2023-04-25T14:12:14.802Z,99452.31
2023-04-25T14:14:41.887Z,99460.13
2023-04-25T14:17:09.838Z,99458.63
2023-04-25T14:19:38.804Z,99458.81
2023-04-25T14:22:05.932Z,99452.78
2023-04-25T14:24:33.051Z,99471.00
2023-04-25T14:27:00.122Z,99478.19
2023-04-25T14:29:27.371Z,99474.59
2023-04-25T14:31:55.530Z,99479.59
2023-04-25T14:34:22.830Z,99483.53
2023-04-25T14:36:50.106Z,99490.16
2023-04-25T14:39:17.865Z,99492.84
2023-04-25T14:41:45.487Z,99504.25
2023-04-25T14:44:12.679Z,99503.53
2023-04-25T14:46:40.011Z,99496.13
2023-04-25T14:49:07.340Z,99507.44
2023-04-25T14:51:34.743Z,99498.03
2023-04-25T14:54:02.263Z,99510.88
2023-04-25T14:56:29.432Z,99502.34
2023-04-25T14:58:56.646Z,99509.22
2023-04-25T15:01:24.206Z,99515.34
2023-04-25T15:03:52.672Z,99519.00
2023-04-25T15:06:20.198Z,99521.72
2023-04-25T15:08:47.343Z,99524.44
2023-04-25T15:11:14.408Z,99518.41
2023-04-25T15:13:41.745Z,99521.88
2023-04-25T15:16:08.940Z,99521.00
2023-04-25T15:18:36.180Z,99520.25
2023-04-25T15:21:03.353Z,99522.09
2023-04-25T15:23:31.486Z,99520.69
2023-04-25T15:25:58.723Z,99537.91
2023-04-25T15:28:25.833Z,99548.34
2023-04-25T15:30:52.932Z,99546.75
2023-04-25T15:33:19.990Z,99534.81
2023-04-25T15:35:47.135Z,99535.66
2023-04-25T15:38:14.268Z,99533.88
2023-04-25T15:40:41.816Z,99539.84
2023-04-25T15:43:15.441Z,99539.00
2023-04-25T15:45:42.993Z,99531.22
2023-04-25T15:48:10.080Z,99533.78
2023-04-25T15:50:37.525Z,99537.19
2023-04-25T15:53:06.579Z,99544.81
2023-04-25T15:55:35.238Z,99536.97
2023-04-25T15:58:02.813Z,99542.97
2023-04-25T16:00:30.047Z,99542.97
2023-04-25T16:02:57.801Z,99549.84
2023-04-25T16:05:25.011Z,99546.34
2023-04-25T16:07:53.982Z,99547.09
2023-04-25T16:10:21.917Z,99540.16
2023-04-25T16:12:50.454Z,99542.75
2023-04-25T16:15:18.048Z,99547.84
2023-04-25T16:17:45.409Z,99545.22
2023-04-25T16:20:13.601Z,99545.22
2023-04-25T16:22:42.293Z,99546.00
2023-04-25T16:25:10.452Z,99545.91
2023-04-25T16:27:39.766Z,99546.00
2023-04-25T16:30:08.777Z,99552.88
2023-04-25T16:32:36.696Z,99556.34
2023-04-25T16:35:04.063Z,99549.50
2023-04-25T16:37:31.273Z,99546.00
2023-04-25T16:39:58.456Z,99540.81
2023-04-25T16:42:25.861Z,99549.41
2023-04-25T16:44:52.970Z,99547.69
2023-04-25T16:47:20.872Z,99545.06
2023-04-25T16:49:48.090Z,99552.78
2023-04-25T16:52:16.405Z,99551.09
2023-04-25T16:54:43.994Z,99559.69
2023-04-25T16:57:11.866Z,99570.13
2023-04-25T16:59:39.680Z,99574.03
2023-04-25T17:02:10.955Z,99577.97
2023-04-25T17:04:38.451Z,99583.69
2023-04-25T17:07:05.820Z,99585.78
2023-04-25T17:09:33.133Z,99595.50
2023-04-25T17:12:00.292Z,99598.31
2023-04-25T17:14:27.474Z,99590.78
2023-04-25T17:16:54.788Z,99583.31
2023-04-25T17:19:22.448Z,99587.75
2023-04-25T17:21:49.826Z,99591.19
2023-04-25T17:24:18.337Z,99589.44
2023-04-25T17:26:48.666Z,99597.13
2023-04-25T17:29:16.283Z,99597.22
2023-04-25T17:31:44.618Z,99597.22
2023-04-25T17:34:16.629Z,99601.53
2023-04-25T17:36:48.348Z,99597.25
2023-04-25T17:39:17.603Z,99605.84
2023-04-25T17:41:45.480Z,99606.63
2023-04-25T17:44:12.656Z,99607.47
2023-04-25T17:46:39.906Z,99605.72
2023-04-25T17:49:07.109Z,99619.53
2023-04-25T17:51:34.244Z,99619.47
2023-04-25T17:54:01.442Z,99624.59
2023-04-25T17:56:29.362Z,99632.34
2023-04-25T17:58:56.546Z,99622.91
2023-04-25T18:01:23.923Z,99626.41
2023-04-25T18:03:51.783Z,99635.03
2023-04-25T18:06:19.488Z,99633.38
2023-04-25T18:08:47.326Z,99645.44
2023-04-25T18:11:14.657Z,99643.72
2023-04-25T18:13:41.997Z,99647.25
2023-04-25T18:16:09.372Z,99660.16
2023-04-25T18:18:37.201Z,99657.63
2023-04-25T18:21:07.527Z,99655.97
2023-04-25T18:23:34.711Z,99667.97
2023-04-25T18:26:02.816Z,99669.81
2023-04-25T18:28:30.389Z,99679.25
2023-04-25T18:30:58.121Z,99669.81
2023-04-25T18:33:25.546Z,99676.69
2023-04-25T18:35:58.614Z,99675.84
2023-04-25T18:41:06.185Z,99681.97
2023-04-25T18:43:45.061Z,99688.91
2023-04-25T18:46:12.328Z,99687.28
2023-04-25T18:48:39.529Z,99696.78
2023-04-25T18:51:06.853Z,99699.41
2023-04-25T18:53:34.017Z,99698.63
2023-04-25T18:56:01.279Z,99701.25
2023-04-25T18:58:28.478Z,99703.00
2023-04-25T19:00:55.731Z,99708.19
2023-04-25T19:03:23.097Z,99708.25
2023-04-25T19:05:50.484Z,99710.00
2023-04-25T19:08:18.042Z,99723.75
2023-04-25T19:10:45.401Z,99721.22
2023-04-25T19:13:14.061Z,99725.53
2023-04-25T19:15:41.136Z,99721.31
2023-04-25T19:18:08.490Z,99730.00
2023-04-25T19:20:36.040Z,99730.94
2023-04-25T19:23:04.939Z,99737.78
2023-04-25T19:25:32.310Z,99741.28
2023-04-25T19:28:00.774Z,99736.16
2023-04-25T19:30:29.493Z,99737.06
2023-04-25T19:32:59.704Z,99738.00
2023-04-25T19:35:30.957Z,99739.81
2023-04-25T19:37:58.450Z,99742.38
2023-04-25T19:40:27.185Z,99743.25
2023-04-25T19:42:54.376Z,99746.66
2023-04-25T19:45:22.051Z,99751.88
2023-04-25T19:47:49.443Z,99756.19
2023-04-25T19:50:16.740Z,99757.91
2023-04-25T19:52:44.238Z,99757.09
2023-04-25T19:55:11.537Z,99757.09
2023-04-25T19:57:38.776Z,99757.97
2023-04-25T20:00:13.025Z,99755.41
2023-04-25T20:02:41.259Z,99758.03
2023-04-25T20:05:09.720Z,99758.91
2023-04-25T20:07:37.142Z,99757.19
2023-04-25T20:10:07.976Z,99750.38
2023-04-25T20:12:37.887Z,99756.38
2023-04-25T20:15:05.495Z,99759.00
2023-04-25T20:17:32.695Z,99756.44
2023-04-25T20:19:59.969Z,99757.31
2023-04-25T20:22:28.781Z,99772.84
2023-04-25T20:24:55.868Z,99772.88
2023-04-25T20:27:22.936Z,99765.25
2023-04-25T20:29:50.048Z,99772.97
2023-04-25T20:32:17.228Z,99770.44
2023-04-25T20:34:44.506Z,99773.91
2023-04-25T20:37:12.106Z,99779.94
2023-04-25T20:39:39.255Z,99776.56
2023-04-25T20:42:06.424Z,99776.53
2023-04-25T20:44:33.669Z,99771.41
2023-04-25T20:47:00.838Z,99783.47
2023-04-25T20:49:27.960Z,99785.19
2023-04-25T20:51:55.054Z,99784.34
2023-04-25T20:54:22.244Z,99786.91
2023-04-25T20:56:49.412Z,99781.81
2023-04-25T20:59:17.058Z,99782.66
2023-04-25T21:01:44.360Z,99785.25
2023-04-25T21:04:11.691Z,99790.41
2023-04-25T21:06:38.853Z,99787.84
2023-04-25T21:09:07.259Z,99787.00
2023-04-25T21:11:34.529Z,99792.16
2023-04-25T21:14:01.781Z,99787.03
2023-04-25T21:16:34.907Z,99795.66
2023-04-25T21:19:02.658Z,99781.09
2023-04-25T21:21:29.873Z,99785.38
2023-04-25T21:23:57.824Z,99780.28
2023-04-25T21:26:25.983Z,99785.44
2023-04-25T21:28:54.388Z,99777.72
2023-04-25T21:31:22.715Z,99780.28
2023-04-25T21:33:49.970Z,99785.47
2023-04-25T21:36:17.788Z,99776.09
2023-04-25T21:38:44.937Z,99792.34
2023-04-25T21:41:12.243Z,99788.97
2023-04-25T21:43:39.335Z,99790.69
2023-04-25T21:46:22.493Z,99788.97
2023-04-25T21:48:50.976Z,99798.44
2023-04-25T21:51:18.894Z,99797.59
2023-04-25T21:53:46.053Z,99792.50
2023-04-25T21:56:13.172Z,99795.91
2023-04-25T21:58:40.337Z,99795.91
2023-04-25T22:01:07.546Z,99787.34
2023-04-25T22:03:34.886Z,99795.91
2023-04-25T22:06:02.201Z,99795.06
2023-04-25T22:08:29.220Z,99795.06
2023-04-25T22:10:56.308Z,99797.66
2023-04-25T22:13:23.462Z,99797.63
2023-04-25T22:15:50.964Z,99798.53
2023-04-25T22:18:19.916Z,99804.56
2023-04-25T22:20:47.380Z,99804.53
2023-04-25T22:23:14.375Z,99805.41
2023-04-25T22:25:42.213Z,99805.44
2023-04-25T22:28:09.352Z,99804.59
2023-04-25T22:30:37.328Z,99807.19
2023-04-25T22:33:04.428Z,99814.06
2023-04-25T22:35:31.780Z,99806.34
2023-04-25T22:37:59.119Z,99806.34
2023-04-25T22:40:26.142Z,99808.94
2023-04-25T22:42:53.276Z,99802.97
2023-04-25T22:45:20.424Z,99811.50
2023-04-25T22:47:47.579Z,99816.66
2023-04-25T22:50:17.044Z,99808.13
2023-04-25T22:52:44.319Z,99806.41
2023-04-25T22:55:13.238Z,99810.69
2023-04-25T22:57:40.937Z,99799.56
2023-04-25T23:00:16.223Z,99808.13
2023-04-25T23:02:46.193Z,99806.44
2023-04-25T23:05:14.372Z,99804.75
2023-04-25T23:07:42.437Z,99808.19
2023-04-25T23:10:10.072Z,99809.03
2023-04-25T23:12:37.442Z,99804.75
2023-04-25T23:15:05.479Z,99808.19
2023-04-25T23:17:32.837Z,99803.06
2023-04-25T23:20:00.025Z,99806.44
2023-04-25T23:22:27.058Z,99812.47
2023-04-25T23:24:54.127Z,99815.03
2023-04-25T23:27:21.207Z,99818.47
2023-04-25T23:29:58.156Z,99817.59
2023-04-25T23:32:26.511Z,99810.75
2023-04-25T23:34:53.766Z,99812.47
2023-04-25T23:37:20.912Z,99813.31
2023-04-25T23:39:52.170Z,99815.06
2023-04-25T23:42:19.464Z,99813.38
2023-04-25T23:44:46.543Z,99820.19
2023-04-25T23:47:14.403Z,99810.78
2023-04-25T23:49:41.802Z,99820.19
2023-04-25T23:52:08.849Z,99818.50
2023-04-25T23:54:36.180Z,99827.06
2023-04-25T23:57:06.363Z,99820.22
2023-04-25T23:59:33.651Z,99821.94
